sensor_id;sensor_type;location;lat;lon;timestamp;temperature;humidity
21489;DHT22;10906;45.194;5.684;2024-03-29T06:01:03;19.10;67.50
21489;DHT22;10906;45.194;5.684;2024-03-29T06:03:48;19.10;67.70
21489;DHT22;10906;45.194;5.684;2024-03-29T06:06:32;19.10;67.90
21489;DHT22;10906;45.194;5.684;2024-03-29T06:09:17;19.10;67.60
21489;DHT22;10906;45.194;5.684;2024-03-29T06:12:02;19.10;67.70
21489;DHT22;10906;45.194;5.684;2024-03-29T06:14:50;19.20;67.50
21489;DHT22;10906;45.194;5.684;2024-03-29T06:17:53;19.20;67.20
21489;DHT22;10906;45.194;5.684;2024-03-29T06:20:38;19.30;67.40
21489;DHT22;10906;45.194;5.684;2024-03-29T06:23:23;19.20;68.20
21489;DHT22;10906;45.194;5.684;2024-03-29T06:26:07;19.20;67.40
21489;DHT22;10906;45.194;5.684;2024-03-29T06:28:52;19.20;67.50
21489;DHT22;10906;45.194;5.684;2024-03-29T06:31:36;19.40;67.50
21489;DHT22;10906;45.194;5.684;2024-03-29T06:34:21;19.30;67.30
21489;DHT22;10906;45.194;5.684;2024-03-29T06:37:05;19.30;67.20
21489;DHT22;10906;45.194;5.684;2024-03-29T06:39:52;19.30;67.30
21489;DHT22;10906;45.194;5.684;2024-03-29T06:42:36;20.20;68.50
21489;DHT22;10906;45.194;5.684;2024-03-29T06:45:21;19.30;67.20
21489;DHT22;10906;45.194;5.684;2024-03-29T06:48:06;19.40;67.30
21489;DHT22;10906;45.194;5.684;2024-03-29T06:50:50;19.30;67.50
21489;DHT22;10906;45.194;5.684;2024-03-29T06:53:34;19.30;68.20
21489;DHT22;10906;45.194;5.684;2024-03-29T06:56:19;19.20;68.00
21489;DHT22;10906;45.194;5.684;2024-03-29T06:59:11;19.20;68.00
21489;DHT22;10906;45.194;5.684;2024-03-29T07:01:56;19.30;68.20
21489;DHT22;10906;45.194;5.684;2024-03-29T07:04:43;19.30;68.50
21489;DHT22;10906;45.194;5.684;2024-03-29T07:07:29;19.20;68.90
21489;DHT22;10906;45.194;5.684;2024-03-29T07:10:14;19.20;68.60
21489;DHT22;10906;45.194;5.684;2024-03-29T07:12:58;19.10;68.90
21489;DHT22;10906;45.194;5.684;2024-03-29T07:15:50;19.10;68.70
21489;DHT22;10906;45.194;5.684;2024-03-29T07:18:34;19.10;69.10
21489;DHT22;10906;45.194;5.684;2024-03-29T07:21:19;19.00;69.60
21489;DHT22;10906;45.194;5.684;2024-03-29T07:24:04;19.10;69.90
21489;DHT22;10906;45.194;5.684;2024-03-29T07:26:49;19.00;69.70
21489;DHT22;10906;45.194;5.684;2024-03-29T07:29:33;19.00;69.70
21489;DHT22;10906;45.194;5.684;2024-03-29T07:32:18;19.00;70.00
21489;DHT22;10906;45.194;5.684;2024-03-29T07:35:03;19.00;70.30
21489;DHT22;10906;45.194;5.684;2024-03-29T07:37:48;18.90;70.40
21489;DHT22;10906;45.194;5.684;2024-03-29T07:40:37;18.90;70.40
21489;DHT22;10906;45.194;5.684;2024-03-29T07:43:21;18.90;70.40
21489;DHT22;10906;45.194;5.684;2024-03-29T07:46:09;19.00;70.20
21489;DHT22;10906;45.194;5.684;2024-03-29T07:48:54;19.00;70.70
21489;DHT22;10906;45.194;5.684;2024-03-29T07:51:38;18.90;70.70
21489;DHT22;10906;45.194;5.684;2024-03-29T07:54:25;19.00;71.10
21489;DHT22;10906;45.194;5.684;2024-03-29T07:57:10;19.00;71.20
21489;DHT22;10906;45.194;5.684;2024-03-29T07:59:55;19.00;71.30
21489;DHT22;10906;45.194;5.684;2024-03-29T08:02:40;19.00;71.20
21489;DHT22;10906;45.194;5.684;2024-03-29T08:05:24;19.00;71.50
21489;DHT22;10906;45.194;5.684;2024-03-29T08:08:20;19.00;73.20
21489;DHT22;10906;45.194;5.684;2024-03-29T08:11:08;19.10;71.80
21489;DHT22;10906;45.194;5.684;2024-03-29T08:13:53;19.00;72.60
21489;DHT22;10906;45.194;5.684;2024-03-29T08:16:38;19.10;72.40
21489;DHT22;10906;45.194;5.684;2024-03-29T08:19:23;19.10;72.60
21489;DHT22;10906;45.194;5.684;2024-03-29T08:22:08;19.10;72.00
21489;DHT22;10906;45.194;5.684;2024-03-29T08:24:55;19.10;72.30
21489;DHT22;10906;45.194;5.684;2024-03-29T08:27:39;19.20;72.10
21489;DHT22;10906;45.194;5.684;2024-03-29T08:30:29;19.20;72.30
21489;DHT22;10906;45.194;5.684;2024-03-29T08:33:18;19.30;72.20
21489;DHT22;10906;45.194;5.684;2024-03-29T08:36:06;19.20;71.60
21489;DHT22;10906;45.194;5.684;2024-03-29T08:38:57;19.30;72.10
21489;DHT22;10906;45.194;5.684;2024-03-29T08:41:44;19.30;71.40
21489;DHT22;10906;45.194;5.684;2024-03-29T08:44:29;19.40;71.10
21489;DHT22;10906;45.194;5.684;2024-03-29T08:47:13;19.40;70.10
21489;DHT22;10906;45.194;5.684;2024-03-29T08:49:58;19.50;69.50
21489;DHT22;10906;45.194;5.684;2024-03-29T08:52:44;19.50;68.20
21489;DHT22;10906;45.194;5.684;2024-03-29T08:55:32;19.60;67.00
21489;DHT22;10906;45.194;5.684;2024-03-29T08:58:17;19.60;66.90
21489;DHT22;10906;45.194;5.684;2024-03-29T09:01:06;19.60;66.30
21489;DHT22;10906;45.194;5.684;2024-03-29T09:03:51;19.70;65.80
21489;DHT22;10906;45.194;5.684;2024-03-29T09:06:35;19.70;65.60
21489;DHT22;10906;45.194;5.684;2024-03-29T09:09:19;19.70;64.90
21489;DHT22;10906;45.194;5.684;2024-03-29T09:12:05;19.50;63.00
21489;DHT22;10906;45.194;5.684;2024-03-29T09:14:49;19.70;64.90
21489;DHT22;10906;45.194;5.684;2024-03-29T09:17:35;19.80;64.60
21489;DHT22;10906;45.194;5.684;2024-03-29T09:20:19;19.80;64.10
21489;DHT22;10906;45.194;5.684;2024-03-29T09:23:04;19.80;64.10
21489;DHT22;10906;45.194;5.684;2024-03-29T09:25:48;19.90;63.50
21489;DHT22;10906;45.194;5.684;2024-03-29T09:28:33;19.90;63.00
21489;DHT22;10906;45.194;5.684;2024-03-29T09:31:21;20.00;63.60
21489;DHT22;10906;45.194;5.684;2024-03-29T09:34:05;20.00;62.40
21489;DHT22;10906;45.194;5.684;2024-03-29T09:36:52;20.00;62.50
21489;DHT22;10906;45.194;5.684;2024-03-29T09:39:39;20.10;62.90
21489;DHT22;10906;45.194;5.684;2024-03-29T09:42:49;20.20;62.30
21489;DHT22;10906;45.194;5.684;2024-03-29T09:45:37;20.30;61.00
21489;DHT22;10906;45.194;5.684;2024-03-29T09:48:22;20.30;63.00
21489;DHT22;10906;45.194;5.684;2024-03-29T09:51:07;20.40;63.20
21489;DHT22;10906;45.194;5.684;2024-03-29T09:53:52;20.40;61.50
21489;DHT22;10906;45.194;5.684;2024-03-29T09:56:37;20.50;62.00
21489;DHT22;10906;45.194;5.684;2024-03-29T09:59:22;20.50;61.60
21489;DHT22;10906;45.194;5.684;2024-03-29T10:02:16;20.60;61.20
21489;DHT22;10906;45.194;5.684;2024-03-29T10:05:07;20.60;59.80
21489;DHT22;10906;45.194;5.684;2024-03-29T10:07:52;20.60;59.50
21489;DHT22;10906;45.194;5.684;2024-03-29T10:10:37;20.60;59.40
21489;DHT22;10906;45.194;5.684;2024-03-29T10:13:23;20.60;59.60
21489;DHT22;10906;45.194;5.684;2024-03-29T10:16:07;20.60;59.80
21489;DHT22;10906;45.194;5.684;2024-03-29T10:18:54;20.70;60.00
21489;DHT22;10906;45.194;5.684;2024-03-29T10:21:39;20.70;59.30
21489;DHT22;10906;45.194;5.684;2024-03-29T10:24:26;20.80;59.60
21489;DHT22;10906;45.194;5.684;2024-03-29T10:27:11;20.90;58.70
21489;DHT22;10906;45.194;5.684;2024-03-29T10:30:00;20.90;58.90
21489;DHT22;10906;45.194;5.684;2024-03-29T10:32:47;20.90;58.60
21489;DHT22;10906;45.194;5.684;2024-03-29T10:35:40;21.00;58.40
21489;DHT22;10906;45.194;5.684;2024-03-29T10:38:28;21.00;57.90
21489;DHT22;10906;45.194;5.684;2024-03-29T10:41:12;21.00;57.60
21489;DHT22;10906;45.194;5.684;2024-03-29T10:43:57;21.10;56.70
21489;DHT22;10906;45.194;5.684;2024-03-29T10:46:43;21.20;57.00
21489;DHT22;10906;45.194;5.684;2024-03-29T10:49:33;21.30;56.90
21489;DHT22;10906;45.194;5.684;2024-03-29T10:52:20;21.30;56.30
21489;DHT22;10906;45.194;5.684;2024-03-29T10:55:08;21.40;56.20
21489;DHT22;10906;45.194;5.684;2024-03-29T10:57:53;21.40;55.60
21489;DHT22;10906;45.194;5.684;2024-03-29T11:00:44;21.50;55.00
21489;DHT22;10906;45.194;5.684;2024-03-29T11:03:38;21.60;55.00
21489;DHT22;10906;45.194;5.684;2024-03-29T11:06:29;21.50;54.60
21489;DHT22;10906;45.194;5.684;2024-03-29T11:09:17;21.60;54.90
21489;DHT22;10906;45.194;5.684;2024-03-29T11:12:05;21.70;54.90
21489;DHT22;10906;45.194;5.684;2024-03-29T11:15:03;21.80;54.80
21489;DHT22;10906;45.194;5.684;2024-03-29T11:17:49;21.80;53.60
21489;DHT22;10906;45.194;5.684;2024-03-29T11:20:34;21.90;54.50
21489;DHT22;10906;45.194;5.684;2024-03-29T11:23:22;21.90;53.90
21489;DHT22;10906;45.194;5.684;2024-03-29T11:26:06;22.00;53.70
21489;DHT22;10906;45.194;5.684;2024-03-29T11:28:53;22.00;53.20
21489;DHT22;10906;45.194;5.684;2024-03-29T11:31:39;22.10;53.10
21489;DHT22;10906;45.194;5.684;2024-03-29T11:34:24;22.20;53.00
21489;DHT22;10906;45.194;5.684;2024-03-29T11:37:10;22.40;52.60
21489;DHT22;10906;45.194;5.684;2024-03-29T11:39:59;22.50;52.50
21489;DHT22;10906;45.194;5.684;2024-03-29T11:42:47;22.60;51.90
21489;DHT22;10906;45.194;5.684;2024-03-29T11:45:32;22.70;51.40
21489;DHT22;10906;45.194;5.684;2024-03-29T11:48:23;22.90;51.40
21489;DHT22;10906;45.194;5.684;2024-03-29T11:51:14;23.20;50.50
21489;DHT22;10906;45.194;5.684;2024-03-29T11:54:00;23.50;50.60
21489;DHT22;10906;45.194;5.684;2024-03-29T11:56:44;23.70;49.70
21489;DHT22;10906;45.194;5.684;2024-03-29T11:59:28;23.80;50.00
21489;DHT22;10906;45.194;5.684;2024-03-29T12:02:13;23.80;49.40
21489;DHT22;10906;45.194;5.684;2024-03-29T12:04:59;23.80;48.90
21489;DHT22;10906;45.194;5.684;2024-03-29T12:07:46;23.80;49.10
21489;DHT22;10906;45.194;5.684;2024-03-29T12:10:35;23.80;48.00
21489;DHT22;10906;45.194;5.684;2024-03-29T12:13:39;23.70;47.30
21489;DHT22;10906;45.194;5.684;2024-03-29T12:16:25;23.60;46.40
21489;DHT22;10906;45.194;5.684;2024-03-29T12:19:09;23.50;47.20
21489;DHT22;10906;45.194;5.684;2024-03-29T12:21:55;23.50;46.90
21489;DHT22;10906;45.194;5.684;2024-03-29T12:24:39;23.30;46.30
21489;DHT22;10906;45.194;5.684;2024-03-29T12:27:27;23.30;47.00
21489;DHT22;10906;45.194;5.684;2024-03-29T12:30:14;23.30;46.80
21489;DHT22;10906;45.194;5.684;2024-03-29T12:33:04;23.30;46.30
21489;DHT22;10906;45.194;5.684;2024-03-29T12:35:50;23.30;46.40
21489;DHT22;10906;45.194;5.684;2024-03-29T12:38:36;23.20;46.20
21489;DHT22;10906;45.194;5.684;2024-03-29T12:41:21;23.30;46.30
21489;DHT22;10906;45.194;5.684;2024-03-29T12:44:08;23.20;46.50
21489;DHT22;10906;45.194;5.684;2024-03-29T12:46:54;23.20;46.00
21489;DHT22;10906;45.194;5.684;2024-03-29T12:49:40;23.20;46.20
21489;DHT22;10906;45.194;5.684;2024-03-29T12:52:26;23.20;46.40
21489;DHT22;10906;45.194;5.684;2024-03-29T12:55:11;23.20;47.30
21489;DHT22;10906;45.194;5.684;2024-03-29T12:57:56;23.20;46.30
21489;DHT22;10906;45.194;5.684;2024-03-29T13:00:42;23.20;46.00
21489;DHT22;10906;45.194;5.684;2024-03-29T13:03:26;23.20;46.00
21489;DHT22;10906;45.194;5.684;2024-03-29T13:06:12;23.20;45.60
21489;DHT22;10906;45.194;5.684;2024-03-29T13:08:56;23.10;45.50
21489;DHT22;10906;45.194;5.684;2024-03-29T13:11:40;23.10;45.30
21489;DHT22;10906;45.194;5.684;2024-03-29T13:14:25;23.10;45.20
21489;DHT22;10906;45.194;5.684;2024-03-29T13:17:10;23.20;45.30
21489;DHT22;10906;45.194;5.684;2024-03-29T13:19:54;23.10;45.30
21489;DHT22;10906;45.194;5.684;2024-03-29T13:22:39;23.10;45.10
21489;DHT22;10906;45.194;5.684;2024-03-29T13:25:26;23.10;45.80
21489;DHT22;10906;45.194;5.684;2024-03-29T13:28:12;23.20;44.40
21489;DHT22;10906;45.194;5.684;2024-03-29T13:30:57;23.10;44.70
21489;DHT22;10906;45.194;5.684;2024-03-29T13:33:41;23.30;44.10
21489;DHT22;10906;45.194;5.684;2024-03-29T13:36:26;23.30;44.90
21489;DHT22;10906;45.194;5.684;2024-03-29T13:39:10;23.30;44.10
21489;DHT22;10906;45.194;5.684;2024-03-29T13:41:57;23.30;43.50
21489;DHT22;10906;45.194;5.684;2024-03-29T13:44:42;23.40;42.90
21489;DHT22;10906;45.194;5.684;2024-03-29T13:47:26;23.40;42.90
21489;DHT22;10906;45.194;5.684;2024-03-29T13:50:11;23.40;42.70
21489;DHT22;10906;45.194;5.684;2024-03-29T13:52:56;23.30;42.60
21489;DHT22;10906;45.194;5.684;2024-03-29T13:55:40;23.30;42.60
21489;DHT22;10906;45.194;5.684;2024-03-29T13:58:25;23.40;42.20
21489;DHT22;10906;45.194;5.684;2024-03-29T14:01:09;23.40;42.70
21489;DHT22;10906;45.194;5.684;2024-03-29T14:03:54;23.40;41.90
21489;DHT22;10906;45.194;5.684;2024-03-29T14:06:38;23.50;41.80
21489;DHT22;10906;45.194;5.684;2024-03-29T14:09:23;23.50;41.60
21489;DHT22;10906;45.194;5.684;2024-03-29T14:12:07;23.60;41.70
21489;DHT22;10906;45.194;5.684;2024-03-29T14:14:53;23.60;41.30
21489;DHT22;10906;45.194;5.684;2024-03-29T14:17:38;23.60;40.80
21489;DHT22;10906;45.194;5.684;2024-03-29T14:20:23;23.60;41.00
21489;DHT22;10906;45.194;5.684;2024-03-29T14:23:08;23.50;41.20
21489;DHT22;10906;45.194;5.684;2024-03-29T14:25:56;23.50;41.10
21489;DHT22;10906;45.194;5.684;2024-03-29T14:28:41;23.50;40.40
21489;DHT22;10906;45.194;5.684;2024-03-29T14:31:26;23.50;40.90
21489;DHT22;10906;45.194;5.684;2024-03-29T14:34:10;23.50;40.80
21489;DHT22;10906;45.194;5.684;2024-03-29T14:36:55;23.50;40.50
21489;DHT22;10906;45.194;5.684;2024-03-29T14:39:39;23.50;40.70
21489;DHT22;10906;45.194;5.684;2024-03-29T14:42:26;23.50;40.90
21489;DHT22;10906;45.194;5.684;2024-03-29T14:45:11;23.50;40.90
21489;DHT22;10906;45.194;5.684;2024-03-29T14:47:56;23.50;40.70
21489;DHT22;10906;45.194;5.684;2024-03-29T14:50:40;23.50;40.70
21489;DHT22;10906;45.194;5.684;2024-03-29T14:53:25;23.50;40.00
21489;DHT22;10906;45.194;5.684;2024-03-29T14:56:09;23.70;40.10
21489;DHT22;10906;45.194;5.684;2024-03-29T14:58:53;23.80;40.10
21489;DHT22;10906;45.194;5.684;2024-03-29T15:01:38;24.00;39.80
21489;DHT22;10906;45.194;5.684;2024-03-29T15:04:23;24.00;39.60
21489;DHT22;10906;45.194;5.684;2024-03-29T15:07:08;24.00;39.50
21489;DHT22;10906;45.194;5.684;2024-03-29T15:09:52;24.10;39.40
21489;DHT22;10906;45.194;5.684;2024-03-29T15:12:37;24.10;39.60
21489;DHT22;10906;45.194;5.684;2024-03-29T15:15:22;24.20;39.30
21489;DHT22;10906;45.194;5.684;2024-03-29T15:18:07;24.20;39.00
21489;DHT22;10906;45.194;5.684;2024-03-29T15:20:59;24.10;39.80
21489;DHT22;10906;45.194;5.684;2024-03-29T15:23:44;24.00;38.80
21489;DHT22;10906;45.194;5.684;2024-03-29T15:26:28;24.00;39.10
21489;DHT22;10906;45.194;5.684;2024-03-29T15:29:13;24.00;39.10
21489;DHT22;10906;45.194;5.684;2024-03-29T15:32:00;24.40;39.60
21489;DHT22;10906;45.194;5.684;2024-03-29T15:34:44;23.80;39.20
21489;DHT22;10906;45.194;5.684;2024-03-29T15:37:29;23.80;39.00
21489;DHT22;10906;45.194;5.684;2024-03-29T15:40:14;23.90;39.40
21489;DHT22;10906;45.194;5.684;2024-03-29T15:42:58;24.00;39.80
21489;DHT22;10906;45.194;5.684;2024-03-29T15:45:43;24.10;39.40
21489;DHT22;10906;45.194;5.684;2024-03-29T15:48:27;24.20;39.10
21489;DHT22;10906;45.194;5.684;2024-03-29T15:51:11;24.40;39.00
21489;DHT22;10906;45.194;5.684;2024-03-29T15:53:57;24.30;39.30
21489;DHT22;10906;45.194;5.684;2024-03-29T15:56:44;24.10;39.10
21489;DHT22;10906;45.194;5.684;2024-03-29T15:59:29;24.00;39.40
21489;DHT22;10906;45.194;5.684;2024-03-29T16:02:13;23.90;39.00
21489;DHT22;10906;45.194;5.684;2024-03-29T16:04:57;23.80;39.10
21489;DHT22;10906;45.194;5.684;2024-03-29T16:07:44;23.70;39.30
21489;DHT22;10906;45.194;5.684;2024-03-29T16:10:28;23.80;39.60
21489;DHT22;10906;45.194;5.684;2024-03-29T16:13:13;23.70;39.80
21489;DHT22;10906;45.194;5.684;2024-03-29T16:16:04;23.70;39.30
21489;DHT22;10906;45.194;5.684;2024-03-29T16:18:48;23.60;39.00
21489;DHT22;10906;45.194;5.684;2024-03-29T16:21:32;23.60;39.80
21489;DHT22;10906;45.194;5.684;2024-03-29T16:24:17;23.50;40.60
21489;DHT22;10906;45.194;5.684;2024-03-29T16:27:01;23.50;39.60
21489;DHT22;10906;45.194;5.684;2024-03-29T16:29:45;23.50;39.90
21489;DHT22;10906;45.194;5.684;2024-03-29T16:32:30;23.50;39.70
21489;DHT22;10906;45.194;5.684;2024-03-29T16:35:15;23.40;39.70
21489;DHT22;10906;45.194;5.684;2024-03-29T16:38:00;23.30;39.80
21489;DHT22;10906;45.194;5.684;2024-03-29T16:40:44;23.30;39.70
21489;DHT22;10906;45.194;5.684;2024-03-29T16:43:29;23.30;39.80
21489;DHT22;10906;45.194;5.684;2024-03-29T16:46:13;23.20;39.60
21489;DHT22;10906;45.194;5.684;2024-03-29T16:48:57;23.10;39.60
21489;DHT22;10906;45.194;5.684;2024-03-29T16:51:41;23.00;40.20
21489;DHT22;10906;45.194;5.684;2024-03-29T16:54:26;23.00;39.60
21489;DHT22;10906;45.194;5.684;2024-03-29T16:57:11;22.90;40.00
21489;DHT22;10906;45.194;5.684;2024-03-29T16:59:55;22.90;40.30
21489;DHT22;10906;45.194;5.684;2024-03-29T17:02:39;22.80;40.20
21489;DHT22;10906;45.194;5.684;2024-03-29T17:05:23;22.70;40.30
21489;DHT22;10906;45.194;5.684;2024-03-29T17:08:08;22.70;40.30
21489;DHT22;10906;45.194;5.684;2024-03-29T17:10:52;22.60;40.90
21489;DHT22;10906;45.194;5.684;2024-03-29T17:13:39;22.60;40.50
21489;DHT22;10906;45.194;5.684;2024-03-29T17:16:23;22.60;40.60
21489;DHT22;10906;45.194;5.684;2024-03-29T17:19:08;22.60;40.60
21489;DHT22;10906;45.194;5.684;2024-03-29T17:21:53;22.60;40.80
21489;DHT22;10906;45.194;5.684;2024-03-29T17:24:37;22.50;40.50
21489;DHT22;10906;45.194;5.684;2024-03-29T17:27:22;22.50;40.80
21489;DHT22;10906;45.194;5.684;2024-03-29T17:30:07;22.50;40.60
21489;DHT22;10906;45.194;5.684;2024-03-29T17:32:52;22.40;40.60
21489;DHT22;10906;45.194;5.684;2024-03-29T17:35:37;22.40;41.40
21489;DHT22;10906;45.194;5.684;2024-03-29T17:38:21;22.40;40.70
21489;DHT22;10906;45.194;5.684;2024-03-29T17:41:06;22.30;41.10
21489;DHT22;10906;45.194;5.684;2024-03-29T17:43:50;22.20;41.00
21489;DHT22;10906;45.194;5.684;2024-03-29T17:46:35;22.10;41.20
21489;DHT22;10906;45.194;5.684;2024-03-29T17:49:19;22.10;41.30
21489;DHT22;10906;45.194;5.684;2024-03-29T17:52:04;22.10;41.40
21489;DHT22;10906;45.194;5.684;2024-03-29T17:54:49;22.00;41.50
21489;DHT22;10906;45.194;5.684;2024-03-29T17:57:34;22.70;42.10
21489;DHT22;10906;45.194;5.684;2024-03-29T18:00:18;22.00;41.80
21489;DHT22;10906;45.194;5.684;2024-03-29T18:03:03;21.90;41.50
21489;DHT22;10906;45.194;5.684;2024-03-29T18:05:47;21.90;41.50
21489;DHT22;10906;45.194;5.684;2024-03-29T18:08:31;21.90;41.50
21489;DHT22;10906;45.194;5.684;2024-03-29T18:11:16;21.90;41.30
21489;DHT22;10906;45.194;5.684;2024-03-29T18:14:01;21.80;41.40
21489;DHT22;10906;45.194;5.684;2024-03-29T18:16:45;21.80;41.50
21489;DHT22;10906;45.194;5.684;2024-03-29T18:19:31;21.80;41.30
21489;DHT22;10906;45.194;5.684;2024-03-29T18:22:15;21.80;41.30
21489;DHT22;10906;45.194;5.684;2024-03-29T18:25:00;21.70;41.20
21489;DHT22;10906;45.194;5.684;2024-03-29T18:27:45;21.70;41.20
21489;DHT22;10906;45.194;5.684;2024-03-29T18:30:33;21.80;41.20
21489;DHT22;10906;45.194;5.684;2024-03-29T18:33:20;21.70;41.10
21489;DHT22;10906;45.194;5.684;2024-03-29T18:36:05;21.60;41.40
21489;DHT22;10906;45.194;5.684;2024-03-29T18:38:50;21.60;41.00
21489;DHT22;10906;45.194;5.684;2024-03-29T18:41:35;21.60;40.70
21489;DHT22;10906;45.194;5.684;2024-03-29T18:44:19;21.60;40.50
21489;DHT22;10906;45.194;5.684;2024-03-29T18:47:04;21.60;40.40
21489;DHT22;10906;45.194;5.684;2024-03-29T18:49:49;21.60;40.50
21489;DHT22;10906;45.194;5.684;2024-03-29T18:52:33;21.50;40.30
21489;DHT22;10906;45.194;5.684;2024-03-29T18:55:18;21.50;40.00
21489;DHT22;10906;45.194;5.684;2024-03-29T18:58:03;21.50;40.10
21489;DHT22;10906;45.194;5.684;2024-03-29T19:00:47;21.50;39.80
21489;DHT22;10906;45.194;5.684;2024-03-29T19:03:32;21.50;39.90
21489;DHT22;10906;45.194;5.684;2024-03-29T19:06:17;21.50;39.40
21489;DHT22;10906;45.194;5.684;2024-03-29T19:09:06;21.60;39.40
21489;DHT22;10906;45.194;5.684;2024-03-29T19:11:51;21.60;39.20
21489;DHT22;10906;45.194;5.684;2024-03-29T19:14:39;21.60;38.60
21489;DHT22;10906;45.194;5.684;2024-03-29T19:17:24;21.70;38.50
21489;DHT22;10906;45.194;5.684;2024-03-29T19:20:09;21.80;38.50
21489;DHT22;10906;45.194;5.684;2024-03-29T19:22:54;21.70;38.40
21489;DHT22;10906;45.194;5.684;2024-03-29T19:25:39;21.60;38.30
21489;DHT22;10906;45.194;5.684;2024-03-29T19:28:23;21.60;38.40
21489;DHT22;10906;45.194;5.684;2024-03-29T19:31:08;21.50;38.30
21489;DHT22;10906;45.194;5.684;2024-03-29T19:33:55;21.60;38.00
21489;DHT22;10906;45.194;5.684;2024-03-29T19:36:40;21.50;38.00
21489;DHT22;10906;45.194;5.684;2024-03-29T19:39:25;21.50;38.50
21489;DHT22;10906;45.194;5.684;2024-03-29T19:42:10;21.40;37.80
21489;DHT22;10906;45.194;5.684;2024-03-29T19:44:54;21.30;37.80
21489;DHT22;10906;45.194;5.684;2024-03-29T19:47:39;21.20;37.80
21489;DHT22;10906;45.194;5.684;2024-03-29T19:50:23;21.30;37.50
21489;DHT22;10906;45.194;5.684;2024-03-29T19:53:08;21.20;37.80
21489;DHT22;10906;45.194;5.684;2024-03-29T19:55:56;21.20;37.80
21489;DHT22;10906;45.194;5.684;2024-03-29T19:58:41;21.10;37.20
21489;DHT22;10906;45.194;5.684;2024-03-29T20:01:25;21.00;37.30
21489;DHT22;10906;45.194;5.684;2024-03-29T20:04:09;21.00;36.70
21489;DHT22;10906;45.194;5.684;2024-03-29T20:06:54;21.10;36.70
21489;DHT22;10906;45.194;5.684;2024-03-29T20:09:38;21.10;36.10
21489;DHT22;10906;45.194;5.684;2024-03-29T20:12:22;21.20;36.10
21489;DHT22;10906;45.194;5.684;2024-03-29T20:15:07;21.20;36.50
21489;DHT22;10906;45.194;5.684;2024-03-29T20:17:52;21.10;36.50
21489;DHT22;10906;45.194;5.684;2024-03-29T20:20:44;21.00;36.90
21489;DHT22;10906;45.194;5.684;2024-03-29T20:23:29;20.90;36.20
21489;DHT22;10906;45.194;5.684;2024-03-29T20:26:16;20.90;36.10
21489;DHT22;10906;45.194;5.684;2024-03-29T20:29:00;20.90;36.20
21489;DHT22;10906;45.194;5.684;2024-03-29T20:31:45;20.80;35.60
21489;DHT22;10906;45.194;5.684;2024-03-29T20:34:35;20.40;36.10
21489;DHT22;10906;45.194;5.684;2024-03-29T20:37:21;20.80;35.50
21489;DHT22;10906;45.194;5.684;2024-03-29T20:40:08;20.80;35.60
21489;DHT22;10906;45.194;5.684;2024-03-29T20:42:53;20.90;34.90
21489;DHT22;10906;45.194;5.684;2024-03-29T20:45:38;20.80;34.60
21489;DHT22;10906;45.194;5.684;2024-03-29T20:48:23;21.10;35.40
21489;DHT22;10906;45.194;5.684;2024-03-29T20:51:07;20.80;35.40
21489;DHT22;10906;45.194;5.684;2024-03-29T20:53:52;20.60;35.50
21489;DHT22;10906;45.194;5.684;2024-03-29T20:56:36;20.60;34.80
21489;DHT22;10906;45.194;5.684;2024-03-29T20:59:21;20.80;34.90
21489;DHT22;10906;45.194;5.684;2024-03-29T21:02:06;20.80;34.50
21489;DHT22;10906;45.194;5.684;2024-03-29T21:05:09;20.90;34.10
21489;DHT22;10906;45.194;5.684;2024-03-29T21:08:12;20.90;34.50
21489;DHT22;10906;45.194;5.684;2024-03-29T21:10:56;20.90;34.30
21489;DHT22;10906;45.194;5.684;2024-03-29T21:13:41;20.80;34.00
21489;DHT22;10906;45.194;5.684;2024-03-29T21:16:25;20.70;34.50
21489;DHT22;10906;45.194;5.684;2024-03-29T21:19:09;20.60;33.80
21489;DHT22;10906;45.194;5.684;2024-03-29T21:21:53;20.50;35.00
21489;DHT22;10906;45.194;5.684;2024-03-29T21:24:37;20.40;34.60
21489;DHT22;10906;45.194;5.684;2024-03-29T21:27:22;20.40;34.70
21489;DHT22;10906;45.194;5.684;2024-03-29T21:30:11;20.40;34.60
21489;DHT22;10906;45.194;5.684;2024-03-29T21:32:59;20.40;34.30
21489;DHT22;10906;45.194;5.684;2024-03-29T21:35:44;20.30;34.10
21489;DHT22;10906;45.194;5.684;2024-03-29T21:38:29;20.40;33.90
21489;DHT22;10906;45.194;5.684;2024-03-29T21:41:12;20.50;34.40
21489;DHT22;10906;45.194;5.684;2024-03-29T21:43:59;20.40;32.50
21489;DHT22;10906;45.194;5.684;2024-03-29T21:46:43;20.40;33.90
21489;DHT22;10906;45.194;5.684;2024-03-29T21:49:28;20.40;34.20
21489;DHT22;10906;45.194;5.684;2024-03-29T21:52:13;20.40;33.50
21489;DHT22;10906;45.194;5.684;2024-03-29T21:55:01;20.40;33.00
21489;DHT22;10906;45.194;5.684;2024-03-29T21:57:45;20.40;33.10
21489;DHT22;10906;45.194;5.684;2024-03-29T22:00:33;20.40;33.20
21489;DHT22;10906;45.194;5.684;2024-03-29T22:03:17;20.40;33.10
21489;DHT22;10906;45.194;5.684;2024-03-29T22:06:02;20.50;33.40
21489;DHT22;10906;45.194;5.684;2024-03-29T22:08:46;20.50;33.40
21489;DHT22;10906;45.194;5.684;2024-03-29T22:11:31;20.50;32.90
21489;DHT22;10906;45.194;5.684;2024-03-29T22:14:15;20.50;33.00
21489;DHT22;10906;45.194;5.684;2024-03-29T22:17:00;20.50;33.30
21489;DHT22;10906;45.194;5.684;2024-03-29T22:19:44;20.40;33.40
21489;DHT22;10906;45.194;5.684;2024-03-29T22:22:28;20.30;32.70
21489;DHT22;10906;45.194;5.684;2024-03-29T22:25:13;20.30;32.90
21489;DHT22;10906;45.194;5.684;2024-03-29T22:27:59;20.30;32.60
21489;DHT22;10906;45.194;5.684;2024-03-29T22:30:44;20.30;32.90
21489;DHT22;10906;45.194;5.684;2024-03-29T22:33:28;20.30;32.60
21489;DHT22;10906;45.194;5.684;2024-03-29T22:36:13;20.30;32.70
21489;DHT22;10906;45.194;5.684;2024-03-29T22:38:58;20.20;33.70
21489;DHT22;10906;45.194;5.684;2024-03-29T22:41:43;20.20;32.90
21489;DHT22;10906;45.194;5.684;2024-03-29T22:44:27;20.20;33.10
21489;DHT22;10906;45.194;5.684;2024-03-29T22:47:11;20.10;33.60
21489;DHT22;10906;45.194;5.684;2024-03-29T22:49:57;20.20;32.80
21489;DHT22;10906;45.194;5.684;2024-03-29T22:52:41;20.40;32.20
21489;DHT22;10906;45.194;5.684;2024-03-29T22:55:26;20.50;32.20
21489;DHT22;10906;45.194;5.684;2024-03-29T22:58:10;20.50;32.60
